createdAt,value
2018-09-12T00:00:48.846Z,5.50
2018-09-12T00:03:17.393Z,11.10
2018-09-12T00:05:45.929Z,7.70
2018-09-12T00:08:14.672Z,5.87
2018-09-12T00:10:43.379Z,7.13
2018-09-12T00:13:11.922Z,7.33
2018-09-12T00:15:40.586Z,8.43
2018-09-12T00:18:09.203Z,7.93
2018-09-12T00:20:37.894Z,7.33
2018-09-12T00:23:06.529Z,7.83
2018-09-12T00:25:35.389Z,6.60
2018-09-12T00:28:04.065Z,5.50
2018-09-12T00:30:32.566Z,8.43
2018-09-12T00:33:01.401Z,5.50
2018-09-12T00:35:29.956Z,6.47
2018-09-12T00:37:58.466Z,5.00
2018-09-12T00:40:27.248Z,6.57
2018-09-12T00:42:55.938Z,9.80
2018-09-12T00:48:00.308Z,7.63
2018-09-12T00:50:29.006Z,6.43
2018-09-12T00:52:57.536Z,6.97
2018-09-12T00:55:26.058Z,7.10
2018-09-12T00:57:54.640Z,9.30
2018-09-12T01:00:23.575Z,5.10
2018-09-12T01:02:52.202Z,6.87
2018-09-12T01:05:20.772Z,7.77
2018-09-12T01:07:49.681Z,6.27
2018-09-12T01:10:18.263Z,5.93
2018-09-12T01:12:47.227Z,7.07
2018-09-12T01:15:16.582Z,9.03
2018-09-12T01:17:45.247Z,7.20
2018-09-12T01:20:13.732Z,5.87
2018-09-12T01:22:42.298Z,6.17
2018-09-12T01:25:11.256Z,7.90
2018-09-12T01:27:39.814Z,6.90
2018-09-12T01:30:09.815Z,8.57
2018-09-12T01:32:38.605Z,6.73
2018-09-12T01:35:07.330Z,8.97
2018-09-12T01:37:35.852Z,5.40
2018-09-12T01:40:04.569Z,4.87
2018-09-12T01:42:33.091Z,6.47
2018-09-12T01:45:01.640Z,6.80
2018-09-12T01:47:30.371Z,5.57
2018-09-12T01:49:58.916Z,7.10
2018-09-12T01:52:27.498Z,5.60
2018-09-12T01:54:56.008Z,7.17
2018-09-12T01:57:24.588Z,7.17
2018-09-12T01:59:53.228Z,7.23
2018-09-12T02:02:21.831Z,6.33
2018-09-12T02:04:50.438Z,7.00
2018-09-12T02:07:19.190Z,6.10
2018-09-12T02:09:47.983Z,5.30
2018-09-12T02:12:16.579Z,8.13
2018-09-12T02:14:45.414Z,6.97
2018-09-12T02:17:14.138Z,6.13
2018-09-12T02:19:43.046Z,6.40
2018-09-12T02:22:11.574Z,6.33
2018-09-12T02:24:40.503Z,7.23
2018-09-12T02:27:09.053Z,7.87
2018-09-12T02:29:37.633Z,6.70
2018-09-12T02:32:06.286Z,8.60
2018-09-12T02:34:34.973Z,7.40
2018-09-12T02:37:03.543Z,9.17
2018-09-12T02:39:32.263Z,6.37
2018-09-12T02:42:01.067Z,6.10
2018-09-12T02:44:32.990Z,6.20
2018-09-12T02:47:01.530Z,7.03
2018-09-12T02:49:30.053Z,6.93
2018-09-12T02:51:59.327Z,8.40
2018-09-12T02:54:28.037Z,7.97
2018-09-12T02:56:56.918Z,9.97
2018-09-12T02:59:25.577Z,9.57
2018-09-12T03:01:54.216Z,9.77
2018-09-12T03:04:22.881Z,8.77
2018-09-12T03:06:51.422Z,6.03
2018-09-12T03:09:19.958Z,5.50
2018-09-12T03:11:49.144Z,7.73
2018-09-12T03:14:17.993Z,6.70
2018-09-12T03:16:46.611Z,5.43
2018-09-12T03:19:15.256Z,10.20
2018-09-12T03:21:43.859Z,8.33
2018-09-12T03:24:12.629Z,8.20
2018-09-12T03:26:41.771Z,10.03
2018-09-12T03:29:10.500Z,7.60
2018-09-12T03:31:39.073Z,8.23
2018-09-12T03:34:08.135Z,6.23
2018-09-12T03:36:37.103Z,6.60
2018-09-12T03:39:08.981Z,6.80
2018-09-12T03:41:37.841Z,8.37
2018-09-12T03:44:06.723Z,8.53
2018-09-12T03:46:35.414Z,6.70
2018-09-12T03:49:04.358Z,10.97
2018-09-12T03:51:32.880Z,8.37
2018-09-12T03:54:01.582Z,6.37
2018-09-12T03:56:30.197Z,9.37
2018-09-12T03:58:58.883Z,7.33
2018-09-12T04:01:27.741Z,7.20
2018-09-12T04:03:56.303Z,8.97
2018-09-12T04:06:24.978Z,6.93
2018-09-12T04:08:53.611Z,5.97
2018-09-12T04:11:22.173Z,7.13
2018-09-12T04:13:51.156Z,10.60
2018-09-12T04:16:19.994Z,6.50
2018-09-12T04:18:48.748Z,6.97
2018-09-12T04:21:17.668Z,7.73
2018-09-12T04:23:46.669Z,11.23
2018-09-12T04:26:15.513Z,10.10
2018-09-12T04:28:44.672Z,9.00
2018-09-12T04:31:13.254Z,6.87
2018-09-12T04:33:41.779Z,10.10
2018-09-12T04:36:10.337Z,7.30
2018-09-12T04:38:38.925Z,6.33
2018-09-12T04:41:07.585Z,7.60
2018-09-12T04:43:36.343Z,7.50
2018-09-12T04:46:05.287Z,8.80
2018-09-12T04:48:34.217Z,6.87
2018-09-12T04:51:02.695Z,8.70
2018-09-12T04:53:31.388Z,6.87
2018-09-12T04:55:59.938Z,6.27
2018-09-12T04:58:28.489Z,11.57
2018-09-12T05:00:57.052Z,8.60
2018-09-12T05:03:25.678Z,8.60
2018-09-12T05:05:54.229Z,8.93
2018-09-12T05:08:22.742Z,9.37
2018-09-12T05:10:51.345Z,12.80
2018-09-12T05:13:19.959Z,10.90
2018-09-12T05:15:48.739Z,12.30
2018-09-12T05:18:17.438Z,9.53
2018-09-12T05:20:46.426Z,9.80
2018-09-12T05:23:15.070Z,7.73
2018-09-12T05:25:43.870Z,8.47
2018-09-12T05:28:12.584Z,8.67
2018-09-12T05:30:41.159Z,9.67
2018-09-12T05:33:09.811Z,9.33
2018-09-12T05:35:38.665Z,8.17
2018-09-12T05:38:07.235Z,8.27
2018-09-12T05:40:35.756Z,13.50
2018-09-12T05:43:04.496Z,10.30
2018-09-12T05:45:33.632Z,8.20
2018-09-12T05:48:02.245Z,8.73
2018-09-12T05:50:30.960Z,12.07
2018-09-12T05:52:59.896Z,8.67
2018-09-12T05:55:28.454Z,7.57
2018-09-12T05:57:56.969Z,10.40
2018-09-12T06:00:25.570Z,10.23
2018-09-12T06:02:54.166Z,8.80
2018-09-12T06:05:22.775Z,9.70
2018-09-12T06:07:51.726Z,11.90
2018-09-12T06:10:20.462Z,9.83
2018-09-12T06:12:49.304Z,9.73
2018-09-12T06:15:18.704Z,7.10
2018-09-12T06:17:47.275Z,7.83
2018-09-12T06:20:16.068Z,15.03
2018-09-12T06:22:44.939Z,12.10
2018-09-12T06:25:13.886Z,10.00
2018-09-12T06:27:42.426Z,10.23
2018-09-12T06:30:11.638Z,10.47
2018-09-12T06:32:40.171Z,11.33
2018-09-12T06:35:09.344Z,7.90
2018-09-12T06:37:38.000Z,8.73
2018-09-12T06:40:06.954Z,13.90
2018-09-12T06:42:35.520Z,9.33
2018-09-12T06:45:04.269Z,10.53
2018-09-12T06:47:33.391Z,10.83
2018-09-12T06:50:02.217Z,7.87
2018-09-12T06:52:30.851Z,8.17
2018-09-12T06:55:00.047Z,11.43
2018-09-12T06:57:28.672Z,9.13
2018-09-12T06:59:57.234Z,10.77
2018-09-12T07:02:26.119Z,8.57
2018-09-12T07:04:55.026Z,9.07
2018-09-12T07:07:23.735Z,11.17
2018-09-12T07:09:52.715Z,8.87
2018-09-12T07:12:21.443Z,10.57
2018-09-12T07:14:50.325Z,8.97
2018-09-12T07:17:19.250Z,13.13
2018-09-12T07:19:48.130Z,9.47
2018-09-12T07:22:17.014Z,12.67
2018-09-12T07:24:45.933Z,9.10
2018-09-12T07:27:14.685Z,8.67
2018-09-12T07:29:43.703Z,7.80
2018-09-12T07:32:12.901Z,13.00
2018-09-12T07:34:41.969Z,6.40
2018-09-12T07:37:11.007Z,13.53
2018-09-12T07:39:39.747Z,9.67
2018-09-12T07:42:08.360Z,10.80
2018-09-12T07:44:37.235Z,8.27
2018-09-12T07:47:06.494Z,8.13
2018-09-12T07:49:35.279Z,8.10
2018-09-12T07:52:03.927Z,10.80
2018-09-12T07:54:32.669Z,8.80
2018-09-12T07:57:01.567Z,7.70
2018-09-12T07:59:30.466Z,7.70
2018-09-12T08:01:59.368Z,10.50
2018-09-12T08:04:28.326Z,6.60
2018-09-12T08:06:57.224Z,6.30
2018-09-12T08:09:26.130Z,15.53
2018-09-12T08:11:55.419Z,10.30
2018-09-12T08:14:24.367Z,8.23
2018-09-12T08:16:53.685Z,7.10
2018-09-12T08:19:22.543Z,6.57
2018-09-12T08:21:51.557Z,7.67
2018-09-12T08:24:20.517Z,5.60
2018-09-12T08:26:49.522Z,7.53
2018-09-12T08:29:18.479Z,6.57
2018-09-12T08:31:47.587Z,7.37
2018-09-12T08:34:16.398Z,7.27
2018-09-12T08:36:45.402Z,7.13
2018-09-12T08:39:14.695Z,5.83
2018-09-12T08:41:43.424Z,5.50
2018-09-12T08:44:12.410Z,6.63
2018-09-12T08:46:41.013Z,7.53
2018-09-12T08:49:10.215Z,5.77
2018-09-12T08:51:39.335Z,5.07
2018-09-12T08:54:08.441Z,6.13
2018-09-12T08:56:37.596Z,5.70
2018-09-12T08:59:06.779Z,9.30
2018-09-12T09:01:35.738Z,6.20
2018-09-12T09:04:04.611Z,7.63
2018-09-12T09:06:33.198Z,4.87
2018-09-12T09:09:02.167Z,5.23
2018-09-12T09:11:30.938Z,6.47
2018-09-12T09:13:59.541Z,6.47
2018-09-12T09:16:28.583Z,6.27
2018-09-12T09:18:57.519Z,7.73
2018-09-12T09:21:26.566Z,5.10
2018-09-12T09:23:55.715Z,5.55
2018-09-12T09:26:24.568Z,6.10
2018-09-12T09:28:53.946Z,5.00
2018-09-12T09:31:22.624Z,3.67
2018-09-12T09:33:51.413Z,7.80
2018-09-12T09:36:20.921Z,5.37
2018-09-12T09:38:49.615Z,6.72
2018-09-12T09:41:18.399Z,10.55
2018-09-12T09:43:47.495Z,5.22
2018-09-12T09:46:16.573Z,5.33
2018-09-12T09:48:46.015Z,6.90
2018-09-12T09:51:15.361Z,5.42
2018-09-12T09:53:44.583Z,3.10
2018-09-12T09:56:13.768Z,5.17
2018-09-12T09:58:42.744Z,3.45
2018-09-12T10:01:17.023Z,4.30
2018-09-12T10:03:51.413Z,4.53
2018-09-12T10:06:24.486Z,2.83
2018-09-12T10:08:56.206Z,4.00
2018-09-12T10:11:25.141Z,3.70
2018-09-12T10:13:53.950Z,3.77
2018-09-12T10:16:23.221Z,3.37
2018-09-12T10:18:52.008Z,5.87
2018-09-12T10:21:20.727Z,2.83
2018-09-12T10:23:49.486Z,3.52
2018-09-12T10:26:18.577Z,2.77
2018-09-12T10:28:47.508Z,3.35
2018-09-12T10:31:16.171Z,3.50
2018-09-12T10:33:45.217Z,2.58
2018-09-12T10:36:14.074Z,3.05
2018-09-12T10:38:42.823Z,2.98
2018-09-12T10:41:11.570Z,1.70
2018-09-12T10:43:40.385Z,4.58
2018-09-12T10:46:09.198Z,2.47
2018-09-12T10:48:37.880Z,3.12
2018-09-12T10:51:07.280Z,3.25
2018-09-12T10:53:35.936Z,3.77
2018-09-12T10:56:04.804Z,2.80
2018-09-12T10:58:34.195Z,1.70
2018-09-12T11:01:03.226Z,2.87
2018-09-12T11:03:32.325Z,2.10
2018-09-12T11:06:01.153Z,2.98
2018-09-12T11:08:30.066Z,5.22
2018-09-12T11:10:58.747Z,2.95
2018-09-12T11:13:27.602Z,4.65
2018-09-12T11:15:56.670Z,4.72
2018-09-12T11:18:25.435Z,2.30
2018-09-12T11:20:54.089Z,1.62
2018-09-12T11:23:22.947Z,2.50
2018-09-12T11:25:51.825Z,6.70
2018-09-12T11:28:20.590Z,2.40
2018-09-12T11:30:49.596Z,3.47
2018-09-12T11:33:18.671Z,3.05
2018-09-12T11:35:48.020Z,2.58
2018-09-12T11:38:17.007Z,3.20
2018-09-12T11:40:46.083Z,3.25
2018-09-12T11:43:14.995Z,5.97
2018-09-12T11:45:43.510Z,3.17
2018-09-12T11:48:12.432Z,2.98
2018-09-12T11:50:41.694Z,3.70
2018-09-12T11:53:10.253Z,5.97
2018-09-12T11:55:39.336Z,4.25
2018-09-12T11:58:08.427Z,5.83
2018-09-12T12:00:37.387Z,6.35
2018-09-12T12:03:06.274Z,2.90
2018-09-12T12:05:35.324Z,4.25
2018-09-12T12:08:04.319Z,5.42
2018-09-12T12:10:33.527Z,2.65
2018-09-12T12:13:02.260Z,3.02
2018-09-12T12:15:31.094Z,4.72
2018-09-12T12:18:00.586Z,2.67
2018-09-12T12:20:29.592Z,3.20
2018-09-12T12:22:58.418Z,3.47
2018-09-12T12:25:27.343Z,5.42
2018-09-12T12:27:56.123Z,6.85
2018-09-12T12:30:25.294Z,3.05
2018-09-12T12:32:54.116Z,4.03
2018-09-12T12:35:23.190Z,4.53
2018-09-12T12:37:52.634Z,2.72
2018-09-12T12:40:21.513Z,5.28
2018-09-12T12:42:50.411Z,4.67
2018-09-12T12:45:19.361Z,5.53
2018-09-12T12:47:48.337Z,2.50
2018-09-12T12:50:17.175Z,3.22
2018-09-12T12:52:46.713Z,3.12
2018-09-12T12:55:15.798Z,7.00
2018-09-12T12:57:44.758Z,3.75
2018-09-12T13:00:13.666Z,3.22
2018-09-12T13:02:42.758Z,3.85
2018-09-12T13:05:12.056Z,3.75
2018-09-12T13:07:41.454Z,6.60
2018-09-12T13:10:10.624Z,3.58
2018-09-12T13:12:39.728Z,3.77
2018-09-12T13:15:08.935Z,4.33
2018-09-12T13:17:37.719Z,6.12
2018-09-12T13:20:07.396Z,2.98
2018-09-12T13:22:36.529Z,3.17
2018-09-12T13:25:05.675Z,5.37
2018-09-12T13:27:34.716Z,4.47
2018-09-12T13:30:03.636Z,6.62
2018-09-12T13:32:32.877Z,5.95
2018-09-12T13:35:01.786Z,3.30
2018-09-12T13:37:30.712Z,4.72
2018-09-12T13:39:59.596Z,5.53
2018-09-12T13:42:28.310Z,3.37
2018-09-12T13:44:57.267Z,3.42
2018-09-12T13:47:26.280Z,2.87
2018-09-12T13:49:55.477Z,3.40
2018-09-12T13:52:24.722Z,4.08
2018-09-12T13:54:53.618Z,3.50
2018-09-12T13:57:22.672Z,3.62
2018-09-12T13:59:51.591Z,4.40
2018-09-12T14:02:20.385Z,3.33
2018-09-12T14:04:49.704Z,4.12
2018-09-12T14:07:18.503Z,5.50
2018-09-12T14:09:47.463Z,6.37
2018-09-12T14:12:16.343Z,3.95
2018-09-12T14:14:45.184Z,3.02
2018-09-12T14:17:14.138Z,4.22
2018-09-12T14:19:43.278Z,6.62
2018-09-12T14:22:12.555Z,8.45
2018-09-12T14:24:41.798Z,11.57
2018-09-12T14:27:10.454Z,49.20
2018-09-12T14:29:39.469Z,9.03
2018-09-12T14:32:08.597Z,12.47
2018-09-12T14:34:37.730Z,11.20
2018-09-12T14:37:06.665Z,9.80
2018-09-12T14:39:35.676Z,10.90
2018-09-12T14:42:04.377Z,10.78
2018-09-12T14:44:33.261Z,9.33
2018-09-12T14:47:02.228Z,9.03
2018-09-12T14:49:31.195Z,14.05
2018-09-12T14:52:00.253Z,18.02
2018-09-12T14:54:29.328Z,11.55
2018-09-12T14:56:58.204Z,20.55
2018-09-12T14:59:26.858Z,13.98
2018-09-12T15:01:55.812Z,14.83
2018-09-12T15:04:24.676Z,19.05
2018-09-12T15:06:53.573Z,17.60
2018-09-12T15:09:22.262Z,15.30
2018-09-12T15:11:51.216Z,15.70
2018-09-12T15:14:20.166Z,14.30
2018-09-12T15:16:49.395Z,10.18
2018-09-12T15:19:18.620Z,11.35
2018-09-12T15:21:47.803Z,10.03
2018-09-12T15:24:16.654Z,15.18
2018-09-12T15:26:45.608Z,13.08
2018-09-12T15:29:14.501Z,10.55
2018-09-12T15:31:44.070Z,10.23
2018-09-12T15:34:13.110Z,12.13
2018-09-12T15:36:42.097Z,11.80
2018-09-12T15:39:12.066Z,12.28
2018-09-12T15:41:41.535Z,12.95
2018-09-12T15:44:10.476Z,13.70
2018-09-12T15:46:39.311Z,14.07
2018-09-12T15:49:08.063Z,16.25
2018-09-12T15:51:36.998Z,13.43
2018-09-12T15:54:05.906Z,14.13
2018-09-12T15:56:35.023Z,14.93
2018-09-12T15:59:04.102Z,17.73
2018-09-12T16:01:33.077Z,15.17
2018-09-12T16:04:02.156Z,17.93
2018-09-12T16:06:30.945Z,17.50
2018-09-12T16:08:59.640Z,15.87
2018-09-12T16:11:28.485Z,15.60
2018-09-12T16:13:57.222Z,18.43
2018-09-12T16:16:25.988Z,14.83
2018-09-12T16:18:55.065Z,17.13
2018-09-12T16:21:23.699Z,19.47
2018-09-12T16:23:52.333Z,15.73
2018-09-12T16:26:21.377Z,19.43
2018-09-12T16:28:50.267Z,18.63
2018-09-12T16:31:19.206Z,19.03
2018-09-12T16:33:48.211Z,20.63
2018-09-12T16:36:17.280Z,19.57
2018-09-12T16:38:46.477Z,19.63
2018-09-12T16:41:15.367Z,23.70
2018-09-12T16:43:44.334Z,20.80
2018-09-12T16:46:13.647Z,17.57
2018-09-12T16:48:42.625Z,16.43
2018-09-12T16:51:11.399Z,16.30
2018-09-12T16:53:40.413Z,11.87
2018-09-12T16:56:09.696Z,17.03
2018-09-12T16:58:38.625Z,13.13
2018-09-12T17:01:07.956Z,14.30
2018-09-12T17:03:37.124Z,14.00
2018-09-12T17:06:06.404Z,18.10
2018-09-12T17:08:35.819Z,14.27
2018-09-12T17:11:05.006Z,13.77
2018-09-12T17:13:34.271Z,16.60
2018-09-12T17:16:03.451Z,13.83
2018-09-12T17:18:32.203Z,12.93
2018-09-12T17:21:01.878Z,12.77
2018-09-12T17:23:30.708Z,14.43
2018-09-12T17:25:59.639Z,16.27
2018-09-12T17:28:28.781Z,17.00
2018-09-12T17:30:57.835Z,19.60
2018-09-12T17:33:27.993Z,20.03
2018-09-12T17:35:57.308Z,17.87
2018-09-12T17:38:26.387Z,19.73
2018-09-12T17:40:55.496Z,20.40
2018-09-12T17:43:24.442Z,20.90
2018-09-12T17:45:53.438Z,20.47
2018-09-12T17:48:22.176Z,17.20
2018-09-12T17:50:51.489Z,14.87
2018-09-12T17:53:20.368Z,18.87
2018-09-12T17:55:49.242Z,18.93
2018-09-12T17:58:18.197Z,20.37
2018-09-12T18:00:48.001Z,23.60
2018-09-12T18:03:17.473Z,18.30
2018-09-12T18:05:46.902Z,21.40
2018-09-12T18:08:15.803Z,17.77
2018-09-12T18:10:44.832Z,16.67
2018-09-12T18:13:13.426Z,19.93
2018-09-12T18:15:42.660Z,19.33
2018-09-12T18:18:11.500Z,22.03
2018-09-12T18:20:40.617Z,20.20
2018-09-12T18:23:09.531Z,19.47
2018-09-12T18:25:38.633Z,18.13
2018-09-12T18:28:07.668Z,16.90
2018-09-12T18:30:37.350Z,19.33
2018-09-12T18:33:06.244Z,19.33
2018-09-12T18:35:35.428Z,16.67
2018-09-12T18:38:04.743Z,14.90
2018-09-12T18:40:33.972Z,15.80
2018-09-12T18:43:03.127Z,17.50
2018-09-12T18:45:32.224Z,16.17
2018-09-12T18:48:01.257Z,17.20
2018-09-12T18:50:29.900Z,16.63
2018-09-12T18:52:59.042Z,13.97
2018-09-12T18:55:27.829Z,15.70
2018-09-12T18:57:56.935Z,18.07
2018-09-12T19:00:25.623Z,17.47
2018-09-12T19:02:54.414Z,15.77
2018-09-12T19:05:23.296Z,17.67
2018-09-12T19:07:52.242Z,19.83
2018-09-12T19:10:21.239Z,18.07
2018-09-12T19:12:50.076Z,15.73
2018-09-12T19:15:19.138Z,16.70
2018-09-12T19:17:48.084Z,11.03
2018-09-12T19:20:17.190Z,16.80
2018-09-12T19:22:46.308Z,14.50
2018-09-12T19:25:15.025Z,15.33
2018-09-12T19:27:44.011Z,13.93
2018-09-12T19:30:12.986Z,13.23
2018-09-12T19:32:41.835Z,13.73
2018-09-12T19:35:10.775Z,13.50
2018-09-12T19:37:40.089Z,13.63
2018-09-12T19:40:09.248Z,9.83
2018-09-12T19:42:38.688Z,10.90
2018-09-12T19:45:07.465Z,12.37
2018-09-12T19:47:36.586Z,10.07
2018-09-12T19:50:05.877Z,10.37
2018-09-12T19:52:34.637Z,11.47
2018-09-12T19:55:03.869Z,8.30
2018-09-12T19:57:33.024Z,8.40
2018-09-12T20:00:01.899Z,9.40
2018-09-12T20:02:33.297Z,10.00
2018-09-12T20:05:02.200Z,6.50
2018-09-12T20:07:32.255Z,6.10
2018-09-12T20:10:01.017Z,5.10
2018-09-12T20:12:29.982Z,3.93
2018-09-12T20:14:59.331Z,2.83
2018-09-12T20:17:28.187Z,5.23
2018-09-12T20:19:57.059Z,6.10
2018-09-12T20:22:26.023Z,4.47
2018-09-12T20:24:55.314Z,4.70
2018-09-12T20:27:24.246Z,2.73
2018-09-12T20:29:53.070Z,3.10
2018-09-12T20:32:21.865Z,3.23
2018-09-12T20:34:50.503Z,3.30
2018-09-12T20:37:19.398Z,4.70
2018-09-12T20:39:48.207Z,4.47
2018-09-12T20:42:17.013Z,6.43
2018-09-12T20:44:45.856Z,5.70
2018-09-12T20:47:14.557Z,5.07
2018-09-12T20:49:43.152Z,4.07
2018-09-12T20:52:11.792Z,3.90
2018-09-12T20:54:40.329Z,3.30
2018-09-12T20:57:09.184Z,4.60
2018-09-12T20:59:37.890Z,4.97
2018-09-12T21:02:06.804Z,4.10
2018-09-12T21:04:35.497Z,4.90
2018-09-12T21:07:04.339Z,5.50
2018-09-12T21:09:33.432Z,5.77
2018-09-12T21:12:02.162Z,6.00
2018-09-12T21:14:30.838Z,6.80
2018-09-12T21:16:59.804Z,6.93
2018-09-12T21:19:28.772Z,6.93
2018-09-12T21:21:57.309Z,6.80
2018-09-12T21:24:25.950Z,7.20
2018-09-12T21:26:54.903Z,8.03
2018-09-12T21:29:23.845Z,7.03
2018-09-12T21:31:52.432Z,7.00
2018-09-12T21:34:21.289Z,7.13
2018-09-12T21:36:49.882Z,7.50
2018-09-12T21:39:18.472Z,8.10
2018-09-12T21:41:47.414Z,9.37
2018-09-12T21:44:16.385Z,8.57
2018-09-12T21:46:45.158Z,10.00
2018-09-12T21:49:13.718Z,9.13
2018-09-12T21:51:42.286Z,9.83
2018-09-12T21:54:11.369Z,11.67
2018-09-12T21:56:41.842Z,9.37
2018-09-12T21:59:10.343Z,8.33
2018-09-12T22:01:38.871Z,8.57
2018-09-12T22:04:07.691Z,9.50
2018-09-12T22:06:36.443Z,11.33
2018-09-12T22:09:08.477Z,11.00
2018-09-12T22:11:37.049Z,9.90
2018-09-12T22:14:05.975Z,10.83
2018-09-12T22:16:34.662Z,10.80
2018-09-12T22:19:03.433Z,10.90
2018-09-12T22:21:32.046Z,10.53
2018-09-12T22:24:00.724Z,10.50
2018-09-12T22:26:29.547Z,10.17
2018-09-12T22:28:58.140Z,10.27
2018-09-12T22:31:26.923Z,11.30
2018-09-12T22:33:55.748Z,13.47
2018-09-12T22:36:24.355Z,10.57
2018-09-12T22:38:53.592Z,12.57
2018-09-12T22:41:22.276Z,11.73
2018-09-12T22:43:51.064Z,13.53
2018-09-12T22:46:19.947Z,14.13
2018-09-12T22:48:48.487Z,13.63
2018-09-12T22:51:17.409Z,14.30
2018-09-12T22:53:45.979Z,12.40
2018-09-12T22:56:14.530Z,15.43
2018-09-12T22:58:43.123Z,15.17
2018-09-12T23:01:11.699Z,15.13
2018-09-12T23:03:40.412Z,15.03
2018-09-12T23:06:09.212Z,14.70
2018-09-12T23:08:37.836Z,14.57
2018-09-12T23:11:06.809Z,19.37
2018-09-12T23:13:35.446Z,16.50
2018-09-12T23:16:04.078Z,18.63
2018-09-12T23:18:32.925Z,18.37
2018-09-12T23:21:01.761Z,18.57
2018-09-12T23:23:30.417Z,18.57
2018-09-12T23:25:59.113Z,15.33
2018-09-12T23:28:27.655Z,15.07
2018-09-12T23:30:56.461Z,16.90
2018-09-12T23:33:25.325Z,19.20
2018-09-12T23:35:53.949Z,18.50
2018-09-12T23:38:22.598Z,17.00
2018-09-12T23:40:51.485Z,15.53
2018-09-12T23:43:20.024Z,15.20
2018-09-12T23:45:48.640Z,15.60
2018-09-12T23:48:17.237Z,15.33
2018-09-12T23:50:45.828Z,17.43
2018-09-12T23:53:14.669Z,14.60
2018-09-12T23:55:43.540Z,15.30
2018-09-12T23:58:12.211Z,15.97
